Time;durP1;ratioP1;P1;durP2;ratioP2;P2;SDS_P1;SDS_P2;PMS_P1;PMS_P2;Temp;Humidity;BMP_temperature;BMP_pressure;BME280_temperature;BME280_humidity;BME280_pressure;Samples;Min_cycle;Max_cycle;Signal;HPM_P1;HPM_P2
2022/05/11 00:01:34;;;;;;;5.07;3.97;;;17.70;99.90;;;;;;5117820;28;20214;-69
2022/05/11 00:04:01;;;;;;;7.07;4.13;;;17.60;99.90;;;;;;5099537;28;20279;-69
2022/05/11 00:06:28;;;;;;;9.48;4.40;;;17.50;99.90;;;;;;5117598;28;20193;-69
2022/05/11 00:08:55;;;;;;;6.35;4.22;;;17.40;99.90;;;;;;5117441;28;20517;-69
2022/05/11 00:11:21;;;;;;;5.57;3.95;;;17.40;99.90;;;;;;5117637;28;20694;-69
2022/05/11 00:13:47;;;;;;;6.32;4.30;;;17.40;99.90;;;;;;5117370;28;20192;-69
2022/05/11 00:16:14;;;;;;;6.60;4.40;;;17.30;99.90;;;;;;5117315;28;20695;-69
2022/05/11 00:18:40;;;;;;;5.75;4.38;;;17.20;99.90;;;;;;5099095;28;20183;-69
2022/05/11 00:21:07;;;;;;;4.93;4.00;;;17.20;99.90;;;;;;5099115;28;20697;-69
2022/05/11 00:23:33;;;;;;;4.88;4.15;;;17.20;99.90;;;;;;5117538;28;20633;-69
2022/05/11 00:25:59;;;;;;;5.82;4.20;;;17.10;99.90;;;;;;5117180;28;20259;-69
2022/05/11 00:28:25;;;;;;;6.88;4.30;;;17.10;99.90;;;;;;5117328;28;20641;-69
2022/05/11 00:30:51;;;;;;;6.15;4.00;;;17.10;99.90;;;;;;5117045;28;20204;-70
2022/05/11 00:33:17;;;;;;;4.40;4.00;;;17.10;99.90;;;;;;5117509;28;20590;-69
2022/05/11 00:35:45;;;;;;;8.98;4.40;;;17.10;99.90;;;;;;5098925;28;20200;-69
2022/05/11 00:38:11;;;;;;;7.70;4.75;;;17.10;99.90;;;;;;5117329;28;20203;-69
2022/05/11 00:40:43;;;;;;;5.78;4.25;;;17.10;99.90;;;;;;5116992;28;20560;-69
2022/05/11 00:43:09;;;;;;;6.57;4.47;;;17.10;99.90;;;;;;5117133;28;20615;-69
2022/05/11 00:45:38;;;;;;;8.40;4.53;;;17.10;99.90;;;;;;5116858;28;20246;-70
2022/05/11 00:50:55;;;;;;;6.43;4.32;;;17.00;99.90;;;;;;5116533;28;20218;-69
2022/05/11 00:53:21;;;;;;;6.55;4.13;;;17.10;99.90;;;;;;5116879;28;20172;-69
2022/05/11 00:55:51;;;;;;;4.88;3.92;;;17.20;99.90;;;;;;5116809;28;20212;-69
2022/05/11 00:58:23;;;;;;;5.80;4.75;;;17.10;99.90;;;;;;5116986;28;20176;-69
2022/05/11 01:00:49;;;;;;;7.60;4.85;;;17.20;99.90;;;;;;5117215;28;20691;-69
2022/05/11 01:03:21;;;;;;;5.97;4.18;;;17.10;99.90;;;;;;5098106;28;20187;-69
2022/05/11 01:05:47;;;;;;;5.68;4.05;;;17.10;99.90;;;;;;5116833;28;20275;-69
2022/05/11 01:08:15;;;;;;;8.10;4.68;;;17.00;99.90;;;;;;5116544;28;20675;-69
2022/05/11 01:10:42;;;;;;;5.53;3.97;;;17.10;99.90;;;;;;5098394;28;20532;-69
2022/05/11 01:13:11;;;;;;;7.40;3.90;;;17.00;99.90;;;;;;5116381;28;20609;-69
2022/05/11 01:15:37;;;;;;;4.72;3.97;;;17.00;99.90;;;;;;5116497;28;20200;-69
2022/05/11 01:18:05;;;;;;;4.95;3.97;;;17.00;99.90;;;;;;5116236;28;20306;-69
2022/05/11 01:20:33;;;;;;;4.78;3.70;;;16.90;99.90;;;;;;5116179;28;20743;-69
2022/05/11 01:23:04;;;;;;;5.18;4.20;;;16.90;99.90;;;;;;5116352;28;20176;-69
2022/05/11 01:25:30;;;;;;;8.15;4.28;;;16.90;99.90;;;;;;5116112;28;20191;-69
2022/05/11 01:28:09;;;;;;;6.15;4.28;;;16.90;99.90;;;;;;5116257;28;20537;-69
2022/05/11 01:30:35;;;;;;;6.88;3.88;;;16.90;99.90;;;;;;5116368;28;20152;-69
2022/05/11 01:33:01;;;;;;;6.13;4.25;;;16.80;99.90;;;;;;5115960;28;20173;-70
2022/05/11 01:35:36;;;;;;;5.78;4.63;;;16.80;99.90;;;;;;5097798;28;20680;-70
2022/05/11 01:38:11;;;;;;;6.60;4.53;;;16.70;99.90;;;;;;5116350;28;20176;-69
2022/05/11 01:40:37;;;;;;;8.10;4.07;;;16.70;99.90;;;;;;5115795;28;20252;-69
2022/05/11 01:43:03;;;;;;;5.82;4.05;;;16.70;99.90;;;;;;5115805;28;20168;-69
2022/05/11 01:45:29;;;;;;;6.75;4.38;;;16.60;99.90;;;;;;5115730;28;20195;-70
2022/05/11 01:47:58;;;;;;;5.35;4.20;;;16.60;99.90;;;;;;5097232;28;20644;-69
2022/05/11 01:50:25;;;;;;;6.68;4.10;;;16.60;99.90;;;;;;5115583;28;20172;-69
2022/05/11 01:52:51;;;;;;;5.90;4.18;;;16.50;99.90;;;;;;5115644;28;20172;-69
2022/05/11 01:55:16;;;;;;;4.93;4.00;;;16.50;99.90;;;;;;5115824;28;20183;-69
2022/05/11 01:57:42;;;;;;;4.63;3.85;;;16.50;99.90;;;;;;5116250;28;20248;-69
2022/05/11 02:00:09;;;;;;;8.02;4.72;;;16.40;99.90;;;;;;5115532;28;20291;-69
2022/05/11 02:02:37;;;;;;;5.50;4.30;;;16.40;99.90;;;;;;5115009;28;20225;-69
2022/05/11 02:07:51;;;;;;;6.50;4.75;;;16.20;99.90;;;;;;5115738;28;20187;-69
2022/05/11 02:10:21;;;;;;;5.70;4.15;;;16.30;99.90;;;;;;5097060;28;20252;-69
2022/05/11 02:12:48;;;;;;;6.75;4.80;;;16.30;99.90;;;;;;5115417;28;20196;-69
2022/05/11 02:15:15;;;;;;;6.75;5.10;;;16.30;99.90;;;;;;5115454;28;20160;-69
2022/05/11 02:17:42;;;;;;;6.55;4.47;;;16.40;99.90;;;;;;5115100;28;20637;-69
2022/05/11 02:20:09;;;;;;;7.70;4.45;;;16.40;99.90;;;;;;5115335;28;20680;-69
2022/05/11 02:22:35;;;;;;;6.75;4.03;;;16.40;99.90;;;;;;5115461;28;20318;-69
2022/05/11 02:25:01;;;;;;;8.30;4.68;;;16.40;99.90;;;;;;5096864;28;20689;-69
2022/05/11 02:27:27;;;;;;;7.50;4.60;;;16.30;99.90;;;;;;5115161;28;20202;-69
2022/05/11 02:29:52;;;;;;;8.15;4.65;;;16.30;99.90;;;;;;5115085;28;20173;-69
2022/05/11 02:32:18;;;;;;;5.88;4.35;;;16.20;99.90;;;;;;5114830;28;20251;-70
2022/05/11 02:37:28;;;;;;;6.47;4.68;;;16.20;99.90;;;;;;5115351;28;20210;-69
2022/05/11 02:39:53;;;;;;;5.60;4.85;;;16.20;99.90;;;;;;5115170;28;20200;-69
2022/05/11 02:42:19;;;;;;;7.55;4.85;;;16.10;99.90;;;;;;5114793;28;20214;-69
2022/05/11 02:44:45;;;;;;;7.65;4.93;;;16.10;99.90;;;;;;5114796;28;20704;-69
2022/05/11 02:47:12;;;;;;;6.15;5.00;;;16.10;99.90;;;;;;5114430;28;20558;-69
2022/05/11 02:49:38;;;;;;;5.07;4.15;;;16.00;99.90;;;;;;5114655;28;20256;-69
2022/05/11 02:52:04;;;;;;;7.65;4.65;;;15.90;99.90;;;;;;5114666;28;20208;-69
2022/05/11 02:54:29;;;;;;;6.72;4.63;;;15.90;99.90;;;;;;5114629;28;20177;-69
2022/05/11 02:56:55;;;;;;;8.63;5.30;;;15.90;99.90;;;;;;5114659;28;20202;-69
2022/05/11 02:59:21;;;;;;;6.95;5.28;;;15.90;99.90;;;;;;5114371;28;20196;-69
2022/05/11 03:01:51;;;;;;;8.48;5.40;;;15.90;99.90;;;;;;5096000;28;20183;-69
2022/05/11 03:04:18;;;;;;;5.30;4.63;;;15.90;99.90;;;;;;5114871;28;20152;-69
2022/05/11 03:06:47;;;;;;;7.13;5.20;;;15.90;99.90;;;;;;5096205;28;20203;-69
2022/05/11 03:09:15;;;;;;;10.52;5.25;;;15.90;99.90;;;;;;5114405;28;20168;-69
2022/05/11 03:11:42;;;;;;;6.45;5.07;;;15.80;99.90;;;;;;5114547;28;20171;-69
2022/05/11 03:14:09;;;;;;;8.60;5.13;;;15.80;99.90;;;;;;5114057;28;20663;-69
2022/05/11 03:16:35;;;;;;;8.90;5.72;;;15.80;99.90;;;;;;5114800;28;20193;-69
2022/05/11 03:19:02;;;;;;;7.53;5.03;;;15.70;99.90;;;;;;5096446;28;20217;-69
2022/05/11 03:21:27;;;;;;;6.68;5.05;;;15.70;99.90;;;;;;5115131;28;20168;-69
2022/05/11 03:23:54;;;;;;;8.23;4.82;;;15.70;99.90;;;;;;5096471;28;20629;-69
2022/05/11 03:26:20;;;;;;;6.65;5.22;;;15.60;99.90;;;;;;5114450;28;20196;-69
2022/05/11 03:28:46;;;;;;;6.70;5.32;;;15.50;99.90;;;;;;5096049;28;20176;-69
2022/05/11 03:31:11;;;;;;;6.95;4.90;;;15.40;99.90;;;;;;5114203;28;20172;-69
2022/05/11 03:36:21;;;;;;;8.45;5.82;;;15.50;99.90;;;;;;5114485;28;20724;-69
2022/05/11 03:38:47;;;;;;;8.88;5.63;;;15.50;99.90;;;;;;5114041;28;20184;-69
2022/05/11 03:41:12;;;;;;;7.28;5.30;;;15.40;99.90;;;;;;5095934;28;20200;-69
2022/05/11 03:43:38;;;;;;;7.28;4.95;;;15.40;99.90;;;;;;5114376;28;20201;-69
2022/05/11 03:46:04;;;;;;;7.70;5.05;;;15.40;99.90;;;;;;5114079;28;20192;-70
2022/05/11 03:48:29;;;;;;;7.43;5.22;;;15.40;99.90;;;;;;5095721;28;20289;-69
2022/05/11 03:50:56;;;;;;;8.57;5.07;;;15.40;99.90;;;;;;5114157;28;20176;-69
2022/05/11 03:53:22;;;;;;;6.93;5.60;;;15.30;99.90;;;;;;5114186;28;20656;-69
2022/05/11 03:55:48;;;;;;;8.05;5.38;;;15.30;99.90;;;;;;5114396;28;20200;-69
2022/05/11 03:58:14;;;;;;;6.38;5.38;;;15.20;99.90;;;;;;5113995;28;20641;-69
2022/05/11 04:00:41;;;;;;;7.22;5.22;;;15.10;99.90;;;;;;5095777;28;20680;-69
2022/05/11 04:03:07;;;;;;;8.95;5.15;;;15.00;99.90;;;;;;5113760;28;20217;-69
2022/05/11 04:05:33;;;;;;;8.00;5.00;;;15.00;99.90;;;;;;5095654;28;20566;-70
2022/05/11 04:07:59;;;;;;;6.05;5.07;;;15.00;99.90;;;;;;5095649;28;20674;-70
2022/05/11 04:10:24;;;;;;;7.25;5.68;;;15.00;99.90;;;;;;5114099;28;20181;-70
2022/05/11 04:12:50;;;;;;;9.85;5.72;;;15.00;99.90;;;;;;5113955;28;20195;-70
2022/05/11 04:15:17;;;;;;;5.70;5.00;;;15.00;99.90;;;;;;5113847;28;20241;-70
2022/05/11 04:17:44;;;;;;;9.38;5.20;;;15.00;99.90;;;;;;5113780;28;20183;-70
2022/05/11 04:20:16;;;;;;;8.63;5.70;;;15.00;99.90;;;;;;5113806;28;20279;-69
2022/05/11 04:22:42;;;;;;;8.05;5.22;;;15.00;99.90;;;;;;5113987;28;20157;-69
2022/05/11 04:25:10;;;;;;;9.27;5.53;;;15.00;99.90;;;;;;5097163;28;20263;-69
2022/05/11 04:27:36;;;;;;;11.35;5.55;;;15.00;99.90;;;;;;5099727;28;20187;-69
2022/05/11 04:30:04;;;;;;;11.32;6.03;;;15.00;99.90;;;;;;5117936;28;20570;-69
2022/05/11 04:32:30;;;;;;;6.45;5.30;;;15.00;99.90;;;;;;5118247;28;20180;-69
2022/05/11 04:34:56;;;;;;;8.23;5.43;;;15.10;99.90;;;;;;5118152;28;20172;-69
2022/05/11 04:37:21;;;;;;;9.30;5.38;;;15.10;99.90;;;;;;5100139;28;20192;-69
2022/05/11 04:39:47;;;;;;;7.65;5.55;;;15.10;99.90;;;;;;5118015;28;20204;-69
2022/05/11 04:42:13;;;;;;;7.50;5.85;;;15.10;99.90;;;;;;5118908;28;20192;-69
2022/05/11 04:44:39;;;;;;;9.80;5.75;;;15.10;99.90;;;;;;5118634;28;20164;-69
2022/05/11 04:47:10;;;;;;;8.60;5.72;;;15.20;99.90;;;;;;5117677;28;20751;-70
2022/05/11 04:49:35;;;;;;;8.73;6.05;;;15.30;99.90;;;;;;5119287;28;20637;-69
2022/05/11 04:52:07;;;;;;;8.10;5.43;;;15.30;99.90;;;;;;5101809;28;20188;-69
2022/05/11 04:54:39;;;;;;;6.07;5.00;;;15.20;99.90;;;;;;5120416;28;20153;-69
2022/05/11 04:57:06;;;;;;;8.18;5.43;;;15.20;99.90;;;;;;5118841;28;20241;-69
2022/05/11 04:59:32;;;;;;;8.85;5.57;;;15.30;99.90;;;;;;5118273;28;20196;-69
2022/05/11 05:01:59;;;;;;;8.05;5.40;;;15.30;99.90;;;;;;5118010;28;20678;-70
2022/05/11 05:04:27;;;;;;;7.63;5.32;;;15.40;99.90;;;;;;5117583;28;20231;-69
2022/05/11 05:06:53;;;;;;;10.25;5.88;;;15.40;99.90;;;;;;5117439;28;20184;-69
2022/05/11 05:09:18;;;;;;;7.00;5.13;;;15.50;99.90;;;;;;5116872;28;20234;-69
2022/05/11 05:11:44;;;;;;;10.23;5.88;;;15.50;99.90;;;;;;5098693;28;20656;-69
2022/05/11 05:14:11;;;;;;;9.73;5.35;;;15.50;99.90;;;;;;5116582;28;20271;-69
2022/05/11 05:16:37;;;;;;;5.93;4.78;;;15.60;99.90;;;;;;5098161;28;20192;-70
2022/05/11 05:19:03;;;;;;;7.50;5.43;;;15.60;99.90;;;;;;5098120;28;20623;-69
2022/05/11 05:21:31;;;;;;;7.63;5.10;;;15.50;99.90;;;;;;5098134;28;20183;-69
2022/05/11 05:23:57;;;;;;;9.40;5.20;;;15.60;99.90;;;;;;5116338;28;20175;-69
2022/05/11 05:26:23;;;;;;;8.63;5.00;;;15.50;99.90;;;;;;5116531;28;20275;-69
2022/05/11 05:31:33;;;;;;;7.93;5.32;;;15.60;99.90;;;;;;5116509;28;20217;-69
2022/05/11 05:34:02;;;;;;;7.93;4.95;;;15.70;99.90;;;;;;5097582;28;20174;-70
2022/05/11 05:36:38;;;;;;;6.68;5.10;;;15.70;99.90;;;;;;5115651;28;20543;-69
2022/05/11 05:39:05;;;;;;;8.55;5.88;;;15.80;99.90;;;;;;5116220;28;20586;-70
2022/05/11 05:41:32;;;;;;;11.35;5.68;;;15.90;99.90;;;;;;5115889;28;20176;-69
2022/05/11 05:43:58;;;;;;;8.75;5.30;;;15.90;99.90;;;;;;5115610;28;20179;-69
2022/05/11 05:46:24;;;;;;;12.23;5.90;;;16.00;99.90;;;;;;5097240;28;20197;-69
2022/05/11 05:48:50;;;;;;;9.48;5.57;;;16.10;99.90;;;;;;5115482;28;20189;-69
2022/05/11 05:51:18;;;;;;;10.57;6.32;;;16.20;99.90;;;;;;5097443;28;20616;-71
2022/05/11 05:53:45;;;;;;;9.00;6.35;;;16.30;99.90;;;;;;5115647;28;20204;-71
2022/05/11 05:56:12;;;;;;;11.88;5.97;;;16.40;99.90;;;;;;5115546;28;20590;-71
2022/05/11 05:58:38;;;;;;;10.02;5.75;;;16.50;99.90;;;;;;5115468;28;20509;-71
2022/05/11 06:01:05;;;;;;;9.10;5.72;;;16.40;99.90;;;;;;5115645;28;20629;-71
2022/05/11 06:03:33;;;;;;;9.90;6.05;;;16.40;99.90;;;;;;5115139;28;20175;-71
2022/05/11 06:05:59;;;;;;;11.55;6.53;;;16.40;99.90;;;;;;5097144;28;20287;-71
2022/05/11 06:08:25;;;;;;;10.63;6.60;;;16.40;99.90;;;;;;5097039;28;20224;-71
2022/05/11 06:10:53;;;;;;;8.23;5.40;;;16.30;99.90;;;;;;5096695;28;20176;-71
2022/05/11 06:13:23;;;;;;;10.07;5.45;;;16.30;99.90;;;;;;5114953;28;20200;-71
2022/05/11 06:15:54;;;;;;;8.48;5.68;;;16.30;99.90;;;;;;5115012;28;20199;-71
2022/05/11 06:18:21;;;;;;;8.73;5.93;;;16.30;99.90;;;;;;5096557;28;20164;-71
2022/05/11 06:20:51;;;;;;;10.30;6.15;;;16.50;99.90;;;;;;5096764;28;20607;-71
2022/05/11 06:23:21;;;;;;;7.10;5.45;;;16.60;99.90;;;;;;5114854;28;20249;-71
2022/05/11 06:25:49;;;;;;;7.78;5.78;;;16.70;99.90;;;;;;5114713;28;20184;-71
2022/05/11 06:28:16;;;;;;;6.32;5.13;;;16.90;99.90;;;;;;5114851;28;20165;-71
2022/05/11 06:30:41;;;;;;;9.25;5.93;;;17.10;99.90;;;;;;5096445;28;20529;-71
2022/05/11 06:33:07;;;;;;;11.25;6.63;;;17.20;99.90;;;;;;5114455;28;20168;-71
2022/05/11 06:35:33;;;;;;;8.65;6.45;;;17.30;99.90;;;;;;5114645;28;20198;-71
2022/05/11 06:38:04;;;;;;;11.40;6.05;;;17.50;99.90;;;;;;5096360;28;20626;-71
2022/05/11 06:40:30;;;;;;;10.25;6.68;;;17.60;99.90;;;;;;5114479;28;20668;-71
2022/05/11 06:42:56;;;;;;;10.63;6.28;;;17.80;99.90;;;;;;5096333;28;20237;-71
2022/05/11 06:45:23;;;;;;;9.05;6.30;;;17.90;99.90;;;;;;5114511;28;20182;-71
2022/05/11 06:47:49;;;;;;;9.32;6.85;;;18.00;99.90;;;;;;5113629;28;20168;-71
2022/05/11 06:50:16;;;;;;;8.38;6.68;;;18.10;99.90;;;;;;5115088;28;20526;-71
2022/05/11 06:52:42;;;;;;;8.93;6.20;;;18.30;99.90;;;;;;5114399;28;20172;-71
2022/05/11 07:00:38;;;;;;;6.95;5.65;;;18.70;99.90;;;;;;5114484;28;20257;-71
2022/05/11 07:03:05;;;;;;;9.95;6.72;;;18.80;99.90;;;;;;5114125;28;20165;-70
2022/05/11 07:05:32;;;;;;;13.68;7.18;;;18.90;99.90;;;;;;5097648;28;20196;-69
2022/05/11 07:07:59;;;;;;;9.65;6.40;;;19.10;99.90;;;;;;5115255;28;20195;-68
2022/05/11 07:10:25;;;;;;;10.20;6.32;;;19.20;99.90;;;;;;5114409;28;20528;-67
2022/05/11 07:12:51;;;;;;;9.38;6.25;;;19.30;99.90;;;;;;5096616;28;20192;-72
2022/05/11 07:15:19;;;;;;;14.40;6.43;;;19.40;99.90;;;;;;5115967;28;20169;-67
2022/05/11 07:17:57;;;;;;;14.50;6.82;;;19.50;99.90;;;;;;5114037;28;20188;-66
2022/05/11 07:20:27;;;;;;;7.90;6.20;;;19.60;99.90;;;;;;5095889;28;20571;-68
2022/05/11 07:22:53;;;;;;;9.00;6.32;;;19.70;99.90;;;;;;5099368;28;20183;-69
2022/05/11 07:25:21;;;;;;;10.68;6.35;;;19.90;99.90;;;;;;5113795;28;20510;-69
2022/05/11 07:27:49;;;;;;;6.65;5.45;;;20.00;99.90;;;;;;5095587;28;20176;-69
2022/05/11 07:30:19;;;;;;;9.23;5.60;;;20.10;99.90;;;;;;5113799;28;20176;-69
2022/05/11 07:32:45;;;;;;;12.48;5.88;;;20.30;99.90;;;;;;5114053;28;20168;-69
2022/05/11 07:35:11;;;;;;;8.32;5.28;;;20.40;99.90;;;;;;5114304;28;20274;-69
2022/05/11 07:37:37;;;;;;;7.60;4.82;;;20.50;99.90;;;;;;5113733;28;20176;-71
2022/05/11 07:40:05;;;;;;;10.55;5.63;;;20.60;99.90;;;;;;5114167;28;20667;-69
2022/05/11 07:42:31;;;;;;;7.35;5.13;;;20.70;99.90;;;;;;5113790;28;20638;-69
2022/05/11 07:44:57;;;;;;;6.35;4.88;;;20.70;99.90;;;;;;5095425;28;20593;-69
2022/05/11 07:47:23;;;;;;;7.22;4.55;;;20.70;99.90;;;;;;5113442;28;20188;-69
2022/05/11 07:49:49;;;;;;;6.63;4.93;;;20.80;99.90;;;;;;5113721;28;20629;-69
2022/05/11 07:52:15;;;;;;;7.43;5.15;;;20.80;99.90;;;;;;5114187;28;20338;-69
2022/05/11 07:54:41;;;;;;;7.68;4.68;;;20.90;99.90;;;;;;5114238;28;20176;-69
2022/05/11 07:59:56;;;;;;;8.25;4.78;;;21.10;99.90;;;;;;5116962;28;20191;-69
2022/05/11 08:02:31;;;;;;;6.22;4.22;;;21.10;99.90;;;;;;5099329;28;20225;-70
2022/05/11 08:05:06;;;;;;;9.05;4.80;;;21.10;99.90;;;;;;5118147;28;20554;-69
2022/05/11 08:07:43;;;;;;;7.38;4.65;;;21.20;99.90;;;;;;5117644;28;20207;-69
2022/05/11 08:10:15;;;;;;;7.20;4.53;;;21.30;99.90;;;;;;5117617;28;20161;-69
2022/05/11 08:12:41;;;;;;;7.70;4.70;;;21.30;99.90;;;;;;5117847;28;20168;-69
2022/05/11 08:15:07;;;;;;;6.80;4.82;;;21.40;99.90;;;;;;5118168;28;20240;-69
2022/05/11 08:17:35;;;;;;;9.10;4.55;;;21.50;99.90;;;;;;5098943;28;20284;-69
2022/05/11 08:20:06;;;;;;;6.75;4.47;;;21.60;99.90;;;;;;5117874;28;20275;-69
2022/05/11 08:22:32;;;;;;;7.85;4.30;;;21.70;99.90;;;;;;5117665;28;20244;-71
2022/05/11 08:24:57;;;;;;;8.73;4.68;;;21.60;99.90;;;;;;5117818;28;20622;-71
2022/05/11 08:27:26;;;;;;;4.53;4.10;;;21.60;99.90;;;;;;5117816;28;20195;-67
2022/05/11 08:35:21;;;;;;;6.40;4.55;;;21.90;99.90;;;;;;5117352;28;20243;-68
2022/05/11 08:37:47;;;;;;;8.05;4.40;;;21.90;99.90;;;;;;5117256;28;20696;-68
2022/05/11 08:40:22;;;;;;;6.25;3.92;;;22.00;99.90;;;;;;5098653;28;20200;-68
2022/05/11 08:42:56;;;;;;;10.85;4.93;;;22.20;99.90;;;;;;5117285;28;20573;-68
2022/05/11 08:45:29;;;;;;;8.80;4.82;;;22.20;99.90;;;;;;5098429;28;20170;-69
2022/05/11 08:47:55;;;;;;;7.85;4.82;;;22.10;99.90;;;;;;5117355;28;20566;-68
2022/05/11 08:50:26;;;;;;;10.65;5.78;;;22.20;99.90;;;;;;5116768;28;20185;-69
2022/05/11 08:53:26;;;;;;;8.40;5.03;;;22.20;99.90;;;;;;5098614;28;20530;-69
2022/05/11 08:55:56;;;;;;;13.98;5.22;;;22.30;99.90;;;;;;5083438;28;20303;-69
2022/05/11 08:58:36;;;;;;;9.10;4.95;;;22.40;99.90;;;;;;5098682;28;20183;-68
2022/05/11 09:01:05;;;;;;;7.53;5.35;;;22.40;99.90;;;;;;5098402;28;20707;-69
2022/05/11 09:03:35;;;;;;;13.45;5.25;;;22.40;99.90;;;;;;5098198;28;20207;-69
2022/05/11 09:06:07;;;;;;;10.07;5.32;;;22.50;99.90;;;;;;5116479;28;20258;-69
2022/05/11 09:08:37;;;;;;;11.93;5.47;;;22.60;99.90;;;;;;5098324;28;20184;-69
2022/05/11 09:11:10;;;;;;;11.50;5.45;;;22.80;99.90;;;;;;5115878;28;20573;-69
2022/05/11 09:13:39;;;;;;;9.15;5.18;;;22.80;99.90;;;;;;5116510;28;20220;-69
2022/05/11 09:16:06;;;;;;;13.38;5.18;;;22.90;99.90;;;;;;5116913;28;20224;-69
2022/05/11 09:18:31;;;;;;;12.30;5.30;;;23.10;99.90;;;;;;5097790;28;20176;-69
2022/05/11 09:21:03;;;;;;;9.05;4.88;;;23.10;99.90;;;;;;5116210;28;20563;-71
2022/05/11 09:23:50;;;;;;;5.65;4.07;;;23.10;99.90;;;;;;5098048;28;20188;-70
2022/05/11 09:26:34;;;;;;;7.38;5.30;;;23.30;99.90;;;;;;5098124;28;20635;-69
2022/05/11 09:29:35;;;;;;;5.68;4.18;;;23.50;99.90;;;;;;5098486;28;20165;-69
2022/05/11 09:32:19;;;;;;;5.38;4.35;;;23.60;99.90;;;;;;5098495;28;20252;-70
2022/05/11 09:34:45;;;;;;;7.43;3.60;;;23.60;99.90;;;;;;5098046;28;20172;-70
2022/05/11 09:37:27;;;;;;;6.18;3.63;;;23.50;99.90;;;;;;5117190;28;20200;-69
2022/05/11 09:40:02;;;;;;;8.60;3.50;;;23.60;99.90;;;;;;5079364;28;20200;-72
2022/05/11 09:42:32;;;;;;;6.22;3.78;;;23.70;99.90;;;;;;5097379;28;20149;-69
2022/05/11 09:44:59;;;;;;;8.55;4.53;;;23.40;99.90;;;;;;5096295;28;20157;-69
2022/05/11 09:47:33;;;;;;;4.65;3.70;;;23.40;99.90;;;;;;5077570;28;20289;-69
2022/05/11 09:50:19;;;;;;;5.97;3.40;;;23.40;99.90;;;;;;5077371;28;20172;-69
2022/05/11 09:52:45;;;;;;;7.93;3.63;;;23.50;99.90;;;;;;5077453;28;20188;-69
2022/05/11 09:55:24;;;;;;;5.38;3.83;;;23.60;99.90;;;;;;5097206;28;20184;-68
2022/05/11 09:57:57;;;;;;;4.30;3.25;;;23.50;99.90;;;;;;5097803;28;20203;-68
2022/05/11 10:00:36;;;;;;;5.68;3.58;;;23.50;99.90;;;;;;5096424;28;20180;-68
2022/05/11 10:03:07;;;;;;;6.07;3.80;;;23.60;99.90;;;;;;5098587;28;20158;-71
2022/05/11 10:05:49;;;;;;;6.60;4.18;;;23.60;99.90;;;;;;5096892;28;20272;-69
2022/05/11 10:08:34;;;;;;;8.13;3.88;;;23.60;99.90;;;;;;5105028;28;20176;-71
2022/05/11 10:11:12;;;;;;;8.00;3.55;;;23.70;99.90;;;;;;5116536;28;20156;-71
2022/05/11 10:13:43;;;;;;;5.68;3.72;;;23.80;99.90;;;;;;5097829;28;20585;-70
2022/05/11 10:22:14;;;;;;;6.55;3.70;;;23.80;99.90;;;;;;5115393;28;20636;-69
2022/05/11 10:25:01;;;;;;;5.88;3.30;;;23.80;99.90;;;;;;5115862;28;20160;-69
2022/05/11 10:27:46;;;;;;;6.20;3.80;;;24.00;99.90;;;;;;5097979;28;20200;-69
2022/05/11 10:30:45;;;;;;;4.90;3.00;;;24.00;99.90;;;;;;5099515;28;20555;-69
2022/05/11 10:33:19;;;;;;;6.03;3.30;;;24.00;99.90;;;;;;5116008;28;20188;-70
2022/05/11 10:36:01;;;;;;;7.25;3.90;;;24.20;99.90;;;;;;5098355;28;20200;-69
2022/05/11 10:38:54;;;;;;;6.78;3.22;;;24.30;99.90;;;;;;5115380;28;20675;-69
2022/05/11 10:41:32;;;;;;;9.43;3.75;;;24.10;99.90;;;;;;5115305;28;20180;-69
2022/05/11 10:44:26;;;;;;;7.20;3.70;;;24.20;99.90;;;;;;5115197;28;20167;-69
2022/05/11 10:47:25;;;;;;;6.03;3.88;;;24.30;99.90;;;;;;5091666;28;20200;-69
2022/05/11 10:50:15;;;;;;;9.13;3.25;;;23.90;99.90;;;;;;5114918;28;20185;-69
2022/05/11 10:52:59;;;;;;;6.20;3.97;;;24.00;99.90;;;;;;5115260;28;20237;-69
2022/05/11 10:55:36;;;;;;;8.40;3.97;;;23.80;99.90;;;;;;5115183;28;20186;-69
2022/05/11 10:58:11;;;;;;;5.38;3.53;;;23.70;99.90;;;;;;5096653;28;20164;-69
2022/05/11 11:00:44;;;;;;;8.38;4.13;;;23.50;99.90;;;;;;5114973;28;20277;-69
2022/05/11 11:03:47;;;;;;;9.30;4.05;;;23.40;99.90;;;;;;5115151;28;20605;-69
2022/05/11 11:09:25;;;;;;;7.47;3.25;;;23.70;99.90;;;;;;5099619;28;20187;-70
2022/05/11 11:12:03;;;;;;;8.02;3.83;;;23.70;99.90;;;;;;5094569;28;20598;-70
2022/05/11 11:14:37;;;;;;;6.35;3.90;;;24.10;99.90;;;;;;5093931;28;20541;-69
2022/05/11 11:17:06;;;;;;;10.40;4.10;;;24.40;99.90;;;;;;5075957;28;20200;-69
2022/05/11 11:19:34;;;;;;;7.82;3.60;;;24.60;99.90;;;;;;5075570;28;20188;-70
2022/05/11 11:22:01;;;;;;;3.70;3.20;;;24.50;99.90;;;;;;5075810;28;20182;-70
2022/05/11 11:24:28;;;;;;;7.28;3.60;;;24.60;99.90;;;;;;5075745;28;20264;-69
2022/05/11 11:27:04;;;;;;;6.18;3.30;;;24.80;99.90;;;;;;5093734;28;20196;-69
2022/05/11 11:29:37;;;;;;;8.77;3.75;;;25.00;99.90;;;;;;5075714;28;20161;-69
2022/05/11 11:32:05;;;;;;;5.80;3.03;;;25.10;99.90;;;;;;5094157;28;20157;-69
2022/05/11 11:34:37;;;;;;;7.78;3.30;;;25.20;99.90;;;;;;5093118;28;20176;-69
2022/05/11 11:37:25;;;;;;;7.60;3.60;;;25.20;99.90;;;;;;5093682;28;20189;-69
2022/05/11 11:39:57;;;;;;;5.90;3.70;;;25.20;99.90;;;;;;5093531;28;20196;-69
2022/05/11 11:42:40;;;;;;;9.60;3.50;;;25.20;99.90;;;;;;5093646;28;20170;-69
2022/05/11 11:45:09;;;;;;;8.38;3.53;;;25.30;99.90;;;;;;5093582;28;20594;-69
2022/05/11 11:47:42;;;;;;;4.63;3.25;;;25.40;99.90;;;;;;5093551;28;20268;-68
2022/05/11 11:50:30;;;;;;;8.07;3.53;;;25.50;99.90;;;;;;5093985;28;20241;-68
2022/05/11 11:53:12;;;;;;;6.85;3.60;;;25.80;99.90;;;;;;5075584;28;20215;-68
2022/05/11 11:55:37;;;;;;;7.32;3.75;;;26.00;99.90;;;;;;5093619;28;20203;-68
2022/05/11 11:58:29;;;;;;;5.35;3.55;;;26.30;99.90;;;;;;5075804;28;20181;-71
2022/05/11 12:01:07;;;;;;;11.98;3.63;;;26.20;99.90;;;;;;5075505;28;20193;-70
2022/05/11 12:03:51;;;;;;;7.43;3.85;;;26.00;99.60;;;;;;5094446;28;20161;-69
2022/05/11 12:15:03;;;;;;;7.93;4.57;;;26.40;99.70;;;;;;5113851;28;20248;-70
2022/05/11 12:17:31;;;;;;;6.88;4.55;;;26.40;99.90;;;;;;5115195;28;20192;-69
2022/05/11 12:20:01;;;;;;;8.50;4.20;;;26.50;99.50;;;;;;5113267;28;20197;-69
2022/05/11 12:22:29;;;;;;;7.03;3.90;;;26.40;99.20;;;;;;5113606;28;20243;-68
2022/05/11 12:25:26;;;;;;;5.82;3.60;;;26.30;99.40;;;;;;5113781;28;20161;-68
2022/05/11 12:27:53;;;;;;;7.07;3.20;;;26.50;99.90;;;;;;5113441;28;20149;-68
2022/05/11 12:30:19;;;;;;;8.15;3.88;;;26.70;99.40;;;;;;5113532;28;20648;-69
2022/05/11 12:33:01;;;;;;;10.07;4.00;;;26.50;99.00;;;;;;5113580;28;20173;-69
2022/05/11 12:35:41;;;;;;;9.07;3.95;;;26.60;99.10;;;;;;5095287;28;20173;-69
2022/05/11 12:38:12;;;;;;;7.20;3.20;;;26.70;99.50;;;;;;5107287;28;20654;-69
2022/05/11 12:40:45;;;;;;;8.63;3.95;;;27.10;99.80;;;;;;5093487;28;20201;-67
2022/05/11 12:43:30;;;;;;;5.95;3.45;;;26.90;97.80;;;;;;5093844;28;20215;-67
2022/05/11 12:46:02;;;;;;;6.70;3.50;;;26.80;99.30;;;;;;5094324;28;20688;-66
2022/05/11 12:48:38;;;;;;;5.25;3.63;;;27.20;99.30;;;;;;5096823;28;20165;-70
2022/05/11 12:51:15;;;;;;;7.82;3.80;;;27.20;98.10;;;;;;5096500;28;20160;-69
2022/05/11 12:53:49;;;;;;;6.20;3.70;;;27.20;97.70;;;;;;5097339;28;20164;-67
2022/05/11 12:56:20;;;;;;;5.22;3.00;;;27.20;97.80;;;;;;5096381;28;20241;-68
2022/05/11 12:58:49;;;;;;;5.00;3.55;;;27.60;99.80;;;;;;5078607;28;20223;-67
2022/05/11 13:01:18;;;;;;;7.18;3.40;;;28.00;97.40;;;;;;5078800;28;20201;-68
2022/05/11 13:03:45;;;;;;;3.80;3.20;;;27.90;97.60;;;;;;5096081;28;20705;-68
2022/05/11 13:06:19;;;;;;;5.20;3.70;;;27.90;97.60;;;;;;5077957;28;20284;-68
2022/05/11 13:08:48;;;;;;;8.32;3.65;;;28.10;99.20;;;;;;5108002;28;20176;-68
2022/05/11 13:11:17;;;;;;;8.27;4.00;;;28.50;97.20;;;;;;5117260;28;20200;-69
2022/05/11 13:13:44;;;;;;;8.02;3.80;;;28.60;97.60;;;;;;5118129;28;20184;-68
2022/05/11 13:16:16;;;;;;;11.75;4.85;;;28.20;96.00;;;;;;5118689;28;20196;-68
2022/05/11 13:18:46;;;;;;;6.20;3.38;;;27.80;97.20;;;;;;5098183;28;20175;-68
2022/05/11 13:21:12;;;;;;;9.90;3.70;;;27.90;97.50;;;;;;5098194;28;20572;-69
2022/05/11 13:23:50;;;;;;;6.07;3.72;;;28.30;97.10;;;;;;5116905;28;20176;-69
2022/05/11 13:26:37;;;;;;;11.35;5.28;;;28.40;96.90;;;;;;5098264;28;20687;-68
2022/05/11 13:29:14;;;;;;;9.60;4.00;;;28.30;96.50;;;;;;5117036;28;20153;-68
2022/05/11 13:31:41;;;;;;;7.28;4.07;;;28.40;96.40;;;;;;5098203;28;20187;-69
2022/05/11 13:34:07;;;;;;;6.43;3.78;;;28.50;96.60;;;;;;5097860;28;20183;-69
2022/05/11 13:36:43;;;;;;;8.63;3.85;;;28.50;97.20;;;;;;5116236;28;20188;-68
2022/05/11 13:39:09;;;;;;;7.40;3.60;;;28.30;97.10;;;;;;5097682;28;20195;-69
2022/05/11 13:41:38;;;;;;;8.15;4.15;;;28.50;96.70;;;;;;5098104;28;20216;-69
2022/05/11 13:44:26;;;;;;;5.20;3.70;;;28.80;97.50;;;;;;5097999;28;20208;-69
2022/05/11 13:49:42;;;;;;;5.20;3.83;;;28.90;95.40;;;;;;5116326;28;20535;-69